Time;durP1;ratioP1;P1;durP2;ratioP2;P2;SDS_P1;SDS_P2;PMS_P1;PMS_P2;Temp;Humidity;BMP_temperature;BMP_pressure;BME280_temperature;BME280_humidity;BME280_pressure;Samples;Min_cycle;Max_cycle;Signal;HPM_P1;HPM_P2
2022/05/01 00:01:21;;;;;;;3.13;1.80;;;;;;;21.69;35.61;101699.03;4196918;28;20045;-67
2022/05/01 00:03:31;;;;;;;2.17;1.75;;;;;;;21.61;35.71;101685.59;4197310;28;20078;-67
2022/05/01 00:05:33;;;;;;;2.70;1.80;;;;;;;21.70;35.72;101700.72;4197047;28;20037;-67
2022/05/01 00:07:37;;;;;;;2.78;1.83;;;;;;;21.70;35.71;101703.50;4197012;28;20040;-67
2022/05/01 00:09:40;;;;;;;3.45;1.80;;;;;;;21.67;35.66;101706.84;4198083;28;20423;-67
2022/05/01 00:11:42;;;;;;;1.65;1.50;;;;;;;21.71;35.43;101709.91;4200489;28;20133;-67
2022/05/01 00:13:45;;;;;;;3.83;1.90;;;;;;;21.71;35.83;101712.69;4200559;28;20040;-68
2022/05/01 00:15:46;;;;;;;2.58;1.60;;;;;;;21.70;35.84;101711.84;4199907;28;20093;-67
2022/05/01 00:17:51;;;;;;;3.58;1.98;;;;;;;21.70;35.87;101705.44;4199540;28;20041;-67
2022/05/01 00:19:52;;;;;;;2.80;1.63;;;;;;;21.63;35.83;101699.28;4200016;28;20083;-68
2022/05/01 00:21:56;;;;;;;2.13;1.90;;;;;;;21.71;35.80;101713.53;4200244;28;20277;-68
2022/05/01 00:23:57;;;;;;;2.65;1.75;;;;;;;21.66;35.61;101704.28;4200145;28;20044;-68
2022/05/01 00:26:00;;;;;;;2.75;1.90;;;;;;;21.70;35.61;101723.00;4199832;28;20025;-66
2022/05/01 00:28:02;;;;;;;2.33;1.73;;;;;;;21.70;35.87;101728.56;4200131;28;20032;-66
2022/05/01 00:30:05;;;;;;;2.55;1.70;;;;;;;21.67;35.90;101712.41;4199999;28;20663;-67
2022/05/01 00:32:09;;;;;;;2.90;2.20;;;;;;;21.61;36.12;101707.03;4199739;28;20045;-68
2022/05/01 00:36:33;;;;;;;2.97;2.00;;;;;;;21.63;35.96;101711.25;4200192;28;20156;-67
2022/05/01 00:38:35;;;;;;;2.53;1.45;;;;;;;21.70;35.71;101728.56;4199776;28;20040;-68
2022/05/01 00:40:39;;;;;;;2.65;1.77;;;;;;;21.70;36.10;101717.41;4200195;28;20086;-67
2022/05/01 00:42:41;;;;;;;2.03;1.70;;;;;;;21.70;36.01;101728.56;4199986;28;20037;-67
2022/05/01 00:44:42;;;;;;;3.15;1.90;;;;;;;21.70;35.66;101728.56;4199934;28;20162;-67
2022/05/01 00:46:53;;;;;;;2.33;1.67;;;;;;;21.69;35.76;101732.47;4199623;28;20101;-68
2022/05/01 00:48:54;;;;;;;3.97;2.30;;;;;;;21.68;35.75;101727.16;4200028;28;20078;-67
2022/05/01 00:50:56;;;;;;;2.40;2.15;;;;;;;21.68;36.09;101730.78;4200110;28;20066;-67
2022/05/01 00:52:57;;;;;;;2.33;1.70;;;;;;;21.69;36.07;101732.47;4200125;28;20098;-68
2022/05/01 00:54:59;;;;;;;4.00;1.65;;;;;;;21.70;35.83;101727.72;4199876;28;20049;-68
2022/05/01 00:57:07;;;;;;;2.65;1.90;;;;;;;21.70;36.00;101727.72;4198860;28;20486;-67
2022/05/01 00:59:10;;;;;;;4.47;1.92;;;;;;;21.50;36.21;101706.13;4200051;28;20542;-68
2022/05/01 01:01:12;;;;;;;2.47;1.70;;;;;;;21.70;35.96;101741.66;4199862;28;20041;-68
2022/05/01 01:03:14;;;;;;;2.95;2.00;;;;;;;21.70;36.17;101744.44;4199777;28;20036;-68
2022/05/01 01:05:15;;;;;;;3.03;1.80;;;;;;;21.69;36.07;101754.75;4199175;28;20041;-68
2022/05/01 01:07:16;;;;;;;1.98;1.80;;;;;;;21.69;35.94;101749.16;4199547;28;20049;-68
2022/05/01 01:09:18;;;;;;;2.47;2.08;;;;;;;21.69;35.84;101757.53;4199807;28;20102;-68
2022/05/01 01:11:21;;;;;;;2.70;2.30;;;;;;;21.69;35.89;101754.75;4199476;28;20036;-68
2022/05/01 01:13:27;;;;;;;2.28;1.80;;;;;;;21.69;36.34;101763.09;4199559;28;20044;-68
2022/05/01 01:15:29;;;;;;;2.10;1.70;;;;;;;21.70;36.13;101764.78;4203621;28;20517;-68
2022/05/01 01:17:30;;;;;;;1.88;1.60;;;;;;;21.62;36.32;101756.06;4199385;28;20090;-68
2022/05/01 01:19:32;;;;;;;2.92;1.70;;;;;;;21.60;35.91;101752.72;4199050;28;20044;-68
2022/05/01 01:21:34;;;;;;;2.35;1.80;;;;;;;21.62;36.23;101759.69;4199586;28;20098;-66
2022/05/01 01:23:39;;;;;;;2.50;1.77;;;;;;;21.67;36.41;101773.69;4199222;28;20036;-65
2022/05/01 01:25:41;;;;;;;2.38;1.75;;;;;;;21.67;36.40;101773.69;4198880;28;20045;-67
2022/05/01 01:27:42;;;;;;;2.30;1.63;;;;;;;21.70;36.23;101775.09;4199455;28;20040;-66
2022/05/01 01:32:09;;;;;;;3.03;1.92;;;;;;;21.70;36.18;101777.88;4200024;28;20086;-66
2022/05/01 01:34:14;;;;;;;2.30;1.80;;;;;;;21.70;35.96;101773.13;4199000;28;20032;-66
2022/05/01 01:36:16;;;;;;;1.88;1.77;;;;;;;21.69;36.30;101779.81;4198908;28;20480;-66
2022/05/01 01:38:18;;;;;;;2.70;2.10;;;;;;;21.70;36.02;101784.28;4199518;28;20024;-68
2022/05/01 01:40:23;;;;;;;2.20;1.98;;;;;;;21.65;36.05;101775.88;4199207;28;20032;-68
2022/05/01 01:42:29;;;;;;;2.55;1.90;;;;;;;21.69;36.29;101781.75;4199022;28;20534;-66
2022/05/01 01:44:31;;;;;;;2.22;1.83;;;;;;;21.67;36.26;101783.97;4199071;28;20025;-67
2022/05/01 01:46:33;;;;;;;2.65;1.90;;;;;;;21.62;36.20;101770.00;4198021;28;20105;-67
2022/05/01 01:48:34;;;;;;;4.75;1.65;;;;;;;21.66;36.09;101776.72;4198543;28;20036;-67
2022/05/01 01:50:39;;;;;;;2.25;1.73;;;;;;;21.66;36.54;101780.34;4198766;28;20033;-67
2022/05/01 01:52:46;;;;;;;2.50;1.58;;;;;;;21.43;36.52;101753.69;4203291;28;20041;-67
2022/05/01 01:54:47;;;;;;;1.92;1.50;;;;;;;21.63;36.15;101775.31;4198795;28;20098;-67
2022/05/01 01:56:49;;;;;;;2.60;1.70;;;;;;;21.60;36.30;101761.91;4198319;28;20110;-67
2022/05/01 01:58:50;;;;;;;2.17;1.65;;;;;;;21.57;36.22;101765.22;4198878;28;20041;-67
2022/05/01 02:00:51;;;;;;;1.88;1.67;;;;;;;21.63;36.49;101778.09;4198700;28;20463;-67
2022/05/01 02:05:30;;;;;;;2.53;1.70;;;;;;;21.36;36.60;101727.19;4198398;28;20189;-67
2022/05/01 02:07:32;;;;;;;2.17;1.77;;;;;;;21.65;36.58;101770.31;4198146;28;20480;-67
2022/05/01 02:09:37;;;;;;;2.47;1.80;;;;;;;21.64;36.60;101765.84;4198661;28;20048;-67
2022/05/01 02:11:40;;;;;;;2.58;1.70;;;;;;;21.64;36.69;101762.22;4198436;28;20443;-67
2022/05/01 02:13:41;;;;;;;2.25;1.80;;;;;;;21.58;36.67;101764.13;4198364;28;20089;-67
2022/05/01 02:15:43;;;;;;;2.00;1.75;;;;;;;21.63;36.58;101769.75;4198077;28;20032;-66
2022/05/01 02:17:45;;;;;;;2.10;1.70;;;;;;;21.63;36.25;101772.53;4198825;28;20044;-66
2022/05/01 02:19:47;;;;;;;2.55;1.80;;;;;;;21.64;36.41;101770.59;4198619;28;20036;-67
2022/05/01 02:21:48;;;;;;;1.92;1.65;;;;;;;21.62;36.21;101770.84;4198166;28;20542;-67
2022/05/01 02:23:50;;;;;;;1.95;1.63;;;;;;;21.64;36.69;101768.63;4198394;28;20533;-67
2022/05/01 02:25:54;;;;;;;2.38;1.90;;;;;;;21.60;36.36;101767.47;4198001;28;20028;-67
2022/05/01 02:27:58;;;;;;;1.70;1.60;;;;;;;21.63;36.28;101772.53;4198915;28;20040;-67
2022/05/01 02:30:00;;;;;;;2.15;1.50;;;;;;;21.58;36.60;101769.72;4196339;28;20538;-67
2022/05/01 02:32:01;;;;;;;2.65;2.13;;;;;;;21.60;36.24;101767.47;4198026;28;20106;-66
2022/05/01 02:34:02;;;;;;;1.75;1.60;;;;;;;21.62;36.46;101775.56;4198264;28;20028;-66
2022/05/01 02:36:07;;;;;;;2.28;1.80;;;;;;;21.63;36.28;101772.53;4198004;28;20048;-66
2022/05/01 02:38:09;;;;;;;2.63;1.88;;;;;;;21.58;36.35;101775.28;4198049;28;20097;-67
2022/05/01 02:40:10;;;;;;;2.92;1.92;;;;;;;21.56;36.37;101777.47;4198190;28;20032;-67
2022/05/01 02:42:13;;;;;;;3.15;1.90;;;;;;;21.57;36.59;101779.16;4197493;28;20365;-67
2022/05/01 02:44:20;;;;;;;2.30;2.10;;;;;;;21.55;36.75;101767.44;4198044;28;20401;-67
2022/05/01 02:46:22;;;;;;;3.22;2.00;;;;;;;21.56;36.48;101763.53;4197946;28;20102;-67
2022/05/01 02:48:23;;;;;;;2.58;1.73;;;;;;;21.38;36.66;101736.94;4198197;28;20483;-67
2022/05/01 02:50:24;;;;;;;2.72;1.98;;;;;;;21.54;36.60;101763.00;4198205;28;20455;-67
2022/05/01 02:52:26;;;;;;;2.38;1.55;;;;;;;21.53;36.68;101766.84;4198046;28;20074;-66
2022/05/01 02:54:29;;;;;;;2.88;1.98;;;;;;;21.52;36.46;101767.97;4198580;28;20422;-67
2022/05/01 02:56:31;;;;;;;2.17;1.77;;;;;;;21.41;36.75;101746.72;4197559;28;20079;-67
2022/05/01 02:58:35;;;;;;;2.15;1.60;;;;;;;21.51;36.78;101763.50;4198241;28;20090;-67
2022/05/01 03:00:40;;;;;;;2.97;2.00;;;;;;;21.52;36.80;101770.75;4198175;28;20037;-67
2022/05/01 03:02:41;;;;;;;2.45;1.58;;;;;;;21.53;36.90;101778.00;4197743;28;20040;-67
2022/05/01 03:04:45;;;;;;;2.10;1.80;;;;;;;21.54;36.45;101780.53;4197869;28;20040;-67
2022/05/01 03:06:47;;;;;;;3.20;1.80;;;;;;;21.55;36.75;101786.94;4197739;28;20066;-67
2022/05/01 03:08:48;;;;;;;2.10;1.67;;;;;;;21.53;36.42;101783.56;4198071;28;20036;-67
2022/05/01 03:10:50;;;;;;;2.03;1.70;;;;;;;21.53;36.42;101783.56;4197912;28;20541;-67
2022/05/01 03:12:54;;;;;;;2.58;1.95;;;;;;;21.52;36.44;101784.69;4188712;28;20040;-67
2022/05/01 03:14:58;;;;;;;1.90;1.73;;;;;;;21.52;36.55;101784.69;4170031;28;20041;-67
2022/05/01 03:16:59;;;;;;;2.00;1.80;;;;;;;21.37;36.65;101768.66;4181023;28;20049;-67
2022/05/01 03:23:42;;;;;;;2.25;1.85;;;;;;;21.53;36.92;101786.34;4171989;28;20152;-67
2022/05/01 03:25:43;;;;;;;3.55;2.10;;;;;;;21.51;36.38;101783.84;4174258;28;20106;-67
2022/05/01 03:27:45;;;;;;;1.95;1.80;;;;;;;21.49;36.74;101788.84;4182085;28;20394;-67
2022/05/01 03:30:15;;;;;;;1.98;1.70;;;;;;;21.40;36.94;101772.88;4189940;28;20145;-68
2022/05/01 03:32:08;;;;;;;5.47;1.77;;;;;;;21.48;36.37;101791.88;4186873;28;20032;-67
2022/05/01 03:34:09;;;;;;;11.75;2.28;;;;;;;21.47;36.58;101785.47;4197918;28;20102;-67
2022/05/01 03:36:14;;;;;;;3.13;2.00;;;;;;;21.46;36.17;101785.75;4194875;28;20529;-67
2022/05/01 03:38:18;;;;;;;9.45;4.53;;;;;;;21.43;36.03;101772.34;4182766;28;20485;-67
2022/05/01 03:40:21;;;;;;;28.45;15.73;;;;;;;21.49;36.13;101793.56;4167097;28;20033;-67
2022/05/01 03:42:22;;;;;;;43.08;22.63;;;;;;;21.49;35.79;101788.00;4183814;28;20034;-67
2022/05/01 03:44:24;;;;;;;44.00;24.33;;;;;;;21.39;35.62;101779.53;4165016;28;20416;-67
2022/05/01 03:46:36;;;;;;;44.65;23.67;;;;;;;21.49;35.80;101794.41;4187421;28;20033;-67
2022/05/01 03:48:37;;;;;;;29.15;17.40;;;;;;;21.50;36.00;101792.47;4200543;28;20094;-67
2022/05/01 03:50:39;;;;;;;34.88;19.52;;;;;;;21.51;35.73;101799.72;4197721;28;20032;-67
2022/05/01 03:52:46;;;;;;;25.25;15.25;;;;;;;21.50;35.49;101796.09;4197838;28;20045;-67
2022/05/01 03:54:47;;;;;;;26.45;14.80;;;;;;;21.50;35.58;101806.38;4200157;28;20446;-67
2022/05/01 03:56:49;;;;;;;23.63;14.13;;;;;;;21.51;35.28;101808.06;4198240;28;20048;-67
2022/05/01 03:58:50;;;;;;;21.13;13.40;;;;;;;21.52;35.50;101812.53;4196667;28;20110;-68
2022/05/01 04:00:52;;;;;;;20.80;13.52;;;;;;;21.44;35.57;101796.28;4200189;28;20486;-68
2022/05/01 04:02:54;;;;;;;25.15;13.30;;;;;;;21.51;35.10;101808.06;4197757;28;20044;-67
2022/05/01 04:05:00;;;;;;;18.38;11.30;;;;;;;21.48;35.27;101805.78;4197649;28;20056;-68
2022/05/01 04:07:02;;;;;;;20.10;12.35;;;;;;;21.50;35.30;101807.22;4198975;28;20083;-67
2022/05/01 04:09:03;;;;;;;18.58;11.25;;;;;;;21.52;35.11;101805.00;4200088;28;20036;-67
2022/05/01 04:11:08;;;;;;;22.15;11.43;;;;;;;21.51;34.87;101822.00;4199166;28;20443;-68
2022/05/01 04:13:11;;;;;;;16.02;10.25;;;;;;;21.52;35.07;101810.56;4197132;28;20109;-67
2022/05/01 04:15:18;;;;;;;18.95;10.80;;;;;;;21.51;35.03;101799.72;4199890;28;20086;-68
2022/05/01 04:17:19;;;;;;;18.92;11.02;;;;;;;21.49;35.36;101801.94;4172629;28;20037;-67
2022/05/01 04:19:21;;;;;;;15.50;10.05;;;;;;;21.48;35.12;101814.16;4177372;28;20044;-66
2022/05/01 04:21:24;;;;;;;18.23;10.60;;;;;;;21.47;35.28;101812.47;4181779;28;20033;-67
2022/05/01 04:23:26;;;;;;;17.65;10.52;;;;;;;21.44;35.56;101807.44;4200607;28;20081;-68
2022/05/01 04:25:34;;;;;;;16.02;9.63;;;;;;;21.28;35.32;101784.97;4197303;28;20052;-67
2022/05/01 04:27:38;;;;;;;19.30;10.80;;;;;;;21.45;35.46;101821.09;4198440;28;20040;-66
2022/05/01 04:29:40;;;;;;;16.40;8.77;;;;;;;21.45;35.30;101814.69;4200622;28;20476;-66
2022/05/01 04:31:41;;;;;;;11.52;7.63;;;;;;;21.44;35.47;101813.88;4195206;28;20052;-67
2022/05/01 04:33:43;;;;;;;14.88;7.88;;;;;;;21.44;34.92;101813.00;4186869;28;20550;-68
2022/05/01 04:35:48;;;;;;;14.13;8.05;;;;;;;21.44;34.95;101813.00;4200564;28;20052;-67
2022/05/01 04:37:50;;;;;;;;;;;;;;;21.40;34.80;101812.72;4202352;28;20185;-65
2022/05/01 04:39:51;;;;;;;16.80;7.95;;;;;;;21.46;35.30;101819.16;4197966;28;19916;-67
2022/05/01 04:41:55;;;;;;;11.73;7.00;;;;;;;21.45;35.11;101814.69;4199641;28;20097;-67
2022/05/01 04:43:56;;;;;;;12.88;7.38;;;;;;;21.42;35.12;101809.66;4197780;28;20105;-67
2022/05/01 04:46:01;;;;;;;13.00;7.40;;;;;;;21.43;34.92;101816.88;4199436;28;20082;-67
2022/05/01 04:48:04;;;;;;;11.02;7.22;;;;;;;21.39;34.90;101821.31;4200089;28;20036;-67
2022/05/01 04:50:06;;;;;;;11.52;7.82;;;;;;;21.43;35.16;101828.03;4189282;28;20111;-68
2022/05/01 04:52:09;;;;;;;14.23;8.15;;;;;;;21.39;35.09;101833.28;4166341;28;20107;-68
2022/05/01 04:54:13;;;;;;;11.35;7.25;;;;;;;21.40;34.97;101836.94;4175178;28;20036;-66
2022/05/01 04:58:37;;;;;;;13.30;7.30;;;;;;;21.38;34.98;101837.16;4199295;28;20090;-67
2022/05/01 05:00:41;;;;;;;11.75;6.65;;;;;;;21.37;34.92;101834.66;4192229;28;20368;-67
2022/05/01 05:02:43;;;;;;;11.63;7.30;;;;;;;21.39;35.32;101840.78;4187294;28;20074;-67
2022/05/01 05:04:44;;;;;;;12.45;6.88;;;;;;;21.40;35.12;101834.13;4199965;28;20429;-67
2022/05/01 05:06:46;;;;;;;11.57;7.10;;;;;;;21.38;35.42;101831.59;4197382;28;20496;-68
2022/05/01 05:11:10;;;;;;;9.55;6.22;;;;;;;21.23;35.34;101806.38;4173732;28;20074;-67
2022/05/01 05:13:11;;;;;;;9.40;6.00;;;;;;;21.37;35.12;101829.94;4199894;28;20045;-67
2022/05/01 05:15:15;;;;;;;7.53;5.50;;;;;;;21.37;34.99;101829.09;4197506;28;20756;-67
2022/05/01 05:17:18;;;;;;;7.35;5.45;;;;;;;21.23;35.27;101814.72;4195808;28;20048;-67
2022/05/01 05:19:20;;;;;;;9.32;5.38;;;;;;;21.37;35.32;101834.66;4189677;28;20506;-66
2022/05/01 05:21:24;;;;;;;9.35;5.75;;;;;;;21.37;35.19;101832.72;4182527;28;20091;-66
2022/05/01 05:23:25;;;;;;;7.93;5.77;;;;;;;21.38;35.06;101830.75;4182952;28;20118;-66
2022/05/01 05:25:32;;;;;;;9.98;5.45;;;;;;;21.39;34.87;101832.44;4182345;28;20294;-68
2022/05/01 05:27:34;;;;;;;8.63;5.55;;;;;;;21.36;35.23;101813.50;4197068;28;20105;-67
2022/05/01 05:29:36;;;;;;;7.47;4.95;;;;;;;21.39;35.22;101821.31;4199296;28;20040;-66
2022/05/01 05:31:37;;;;;;;7.10;5.18;;;;;;;21.38;35.02;101830.75;4194469;28;20426;-66
2022/05/01 05:33:39;;;;;;;8.85;5.70;;;;;;;21.38;35.05;101830.75;4195839;28;20181;-67
2022/05/01 05:35:40;;;;;;;11.35;5.95;;;;;;;21.38;35.42;101839.13;4166203;28;20030;-67
2022/05/01 05:37:42;;;;;;;8.00;5.07;;;;;;;21.34;35.28;101830.44;4181576;28;20041;-67
2022/05/01 05:39:46;;;;;;;7.07;5.35;;;;;;;21.22;35.35;101822.22;4191006;28;20041;-67
2022/05/01 05:41:47;;;;;;;7.55;5.45;;;;;;;21.37;35.50;101834.66;4199243;28;20036;-68
2022/05/01 05:43:52;;;;;;;8.68;5.78;;;;;;;21.39;35.69;101827.72;4197551;28;20052;-67
2022/05/01 05:45:53;;;;;;;8.63;5.60;;;;;;;21.45;35.38;101826.69;4199165;28;20090;-68
2022/05/01 05:47:54;;;;;;;7.80;4.90;;;;;;;21.46;35.60;101833.09;4199025;28;20059;-67
2022/05/01 05:49:56;;;;;;;7.50;4.85;;;;;;;21.47;35.20;101830.03;4185746;28;20045;-67
2022/05/01 05:51:58;;;;;;;9.10;5.53;;;;;;;21.48;35.67;101839.22;4185056;28;20033;-68
2022/05/01 05:53:59;;;;;;;7.78;5.25;;;;;;;21.48;35.17;101836.44;4181228;28;20103;-67
2022/05/01 05:56:04;;;;;;;7.68;5.05;;;;;;;21.49;35.50;101832.56;4180126;28;20045;-67
2022/05/01 05:58:05;;;;;;;9.17;5.00;;;;;;;21.47;35.23;101837.53;4171396;28;20034;-67
2022/05/01 06:00:09;;;;;;;6.38;4.85;;;;;;;21.45;35.25;101836.97;4166203;28;20425;-67
2022/05/01 06:02:16;;;;;;;8.32;4.68;;;;;;;21.35;35.59;101822.94;4165702;28;20096;-67
2022/05/01 06:04:18;;;;;;;8.55;4.57;;;;;;;21.43;35.26;101841.94;4165669;28;20037;-67
2022/05/01 06:06:19;;;;;;;7.05;4.72;;;;;;;21.40;35.29;101837.75;4165601;28;20041;-67
2022/05/01 06:08:21;;;;;;;6.97;5.05;;;;;;;21.30;35.18;101818.13;4165058;28;20037;-67
2022/05/01 06:10:22;;;;;;;6.97;4.90;;;;;;;21.25;35.49;101813.34;4179555;28;20558;-67
2022/05/01 06:12:28;;;;;;;6.00;4.25;;;;;;;21.30;35.26;101821.75;4182175;28;20071;-67
2022/05/01 06:14:29;;;;;;;8.27;4.60;;;;;;;21.38;35.25;101825.19;4189010;28;20041;-67
2022/05/01 06:16:31;;;;;;;6.43;4.13;;;;;;;21.39;35.24;101824.09;4198242;28;20090;-68
2022/05/01 06:18:33;;;;;;;5.78;4.00;;;;;;;21.39;35.25;101829.66;4198389;28;20102;-67
2022/05/01 06:20:44;;;;;;;6.50;4.35;;;;;;;21.39;35.58;101826.88;4197227;28;20033;-67
2022/05/01 06:22:50;;;;;;;5.35;3.80;;;;;;;21.38;35.04;101826.03;4198123;28;20044;-68
2022/05/01 06:24:56;;;;;;;7.40;4.78;;;;;;;21.39;35.49;101835.22;4198355;28;20021;-68
2022/05/01 06:27:01;;;;;;;32.17;4.95;;;;;;;21.37;35.29;101829.94;4198048;28;20036;-68
2022/05/01 06:29:05;;;;;;;5.50;4.05;;;;;;;21.21;35.27;101803.84;4198559;28;20036;-67
2022/05/01 06:31:07;;;;;;;4.75;3.67;;;;;;;21.36;35.38;101832.97;4197578;28;20480;-68
2022/05/01 06:33:11;;;;;;;5.45;4.15;;;;;;;21.37;35.72;101838.28;4198077;28;20037;-67
2022/05/01 06:35:16;;;;;;;8.68;4.47;;;;;;;21.38;35.70;101841.91;4198103;28;20148;-67
2022/05/01 06:37:17;;;;;;;8.00;4.53;;;;;;;21.20;35.39;101799.38;4198065;28;20089;-67
2022/05/01 06:39:19;;;;;;;8.10;4.07;;;;;;;21.37;35.57;101829.94;4198401;28;20094;-68
2022/05/01 06:41:20;;;;;;;5.45;4.00;;;;;;;21.36;35.40;101833.81;4198062;28;21155;-67
2022/05/01 06:43:27;;;;;;;5.68;3.90;;;;;;;21.37;35.45;101831.88;4198183;28;20140;-67
2022/05/01 06:45:28;;;;;;;6.47;4.40;;;;;;;21.37;35.19;101829.94;4195694;28;20114;-68
2022/05/01 06:47:30;;;;;;;6.63;4.32;;;;;;;21.18;35.36;101804.38;4181340;28;20041;-68
2022/05/01 06:49:31;;;;;;;4.88;3.65;;;;;;;21.37;35.32;101823.53;4181972;28;20090;-66
2022/05/01 06:51:32;;;;;;;5.50;4.07;;;;;;;21.31;35.37;101819.84;4181446;28;20044;-66
2022/05/01 06:53:34;;;;;;;5.53;4.00;;;;;;;21.34;35.15;101822.09;4184853;28;20040;-68
2022/05/01 06:55:35;;;;;;;6.45;3.90;;;;;;;21.38;35.26;101830.75;4180996;28;20037;-67
2022/05/01 06:57:36;;;;;;;4.55;3.50;;;;;;;21.37;35.40;101818.78;4181536;28;20044;-68
2022/05/01 06:59:40;;;;;;;6.18;4.30;;;;;;;21.36;35.48;101810.72;4181624;28;20396;-68
2022/05/01 07:01:42;;;;;;;5.15;3.60;;;;;;;21.37;35.34;101817.94;4181627;28;20473;-67
2022/05/01 07:03:43;;;;;;;5.45;3.88;;;;;;;21.38;35.20;101814.06;4181664;28;20045;-68
2022/05/01 07:05:44;;;;;;;6.18;3.90;;;;;;;21.37;35.59;101813.22;4181462;28;20040;-67
2022/05/01 07:07:47;;;;;;;5.05;3.63;;;;;;;21.41;35.46;101807.97;4181709;28;20053;-67
2022/05/01 07:09:50;;;;;;;4.65;3.67;;;;;;;21.43;35.27;101814.09;4181395;28;20045;-68
2022/05/01 07:11:51;;;;;;;4.95;3.50;;;;;;;21.40;35.42;101806.31;4181083;28;20122;-67
2022/05/01 07:13:53;;;;;;;4.72;3.60;;;;;;;21.42;35.42;101815.22;4181242;28;20021;-67
2022/05/01 07:15:54;;;;;;;6.13;3.95;;;;;;;21.42;35.60;101813.25;4181053;28;20079;-68
2022/05/01 07:17:58;;;;;;;5.15;3.65;;;;;;;21.42;35.17;101809.66;4181015;28;20523;-67
2022/05/01 07:20:03;;;;;;;4.63;3.63;;;;;;;21.42;35.42;101818.84;4180869;28;20044;-67
2022/05/01 07:22:04;;;;;;;;;;;;;;;21.41;35.41;101819.13;4185487;28;20086;-68
2022/05/01 07:24:07;;;;;;;4.72;3.70;;;;;;;21.34;35.20;101801.75;4198172;28;20299;-68
2022/05/01 07:26:08;;;;;;;5.30;3.47;;;;;;;21.49;34.97;101818.63;4197826;28;20044;-68
2022/05/01 07:28:12;;;;;;;4.18;3.50;;;;;;;21.41;35.08;101813.53;4197961;28;20036;-67
2022/05/01 07:30:14;;;;;;;5.20;3.63;;;;;;;21.43;35.10;101828.03;4197959;28;20086;-67
2022/05/01 07:32:18;;;;;;;5.15;3.60;;;;;;;21.39;35.40;101826.88;4197716;28;20106;-67
2022/05/01 07:34:22;;;;;;;4.88;3.58;;;;;;;21.39;35.06;101832.44;4197955;28;20036;-68
2022/05/01 07:36:23;;;;;;;5.38;3.55;;;;;;;21.36;35.52;101832.97;4197457;28;20078;-67
2022/05/01 07:38:27;;;;;;;6.30;3.67;;;;;;;21.34;35.28;101835.16;4197861;28;20094;-67
2022/05/01 07:40:32;;;;;;;4.53;3.53;;;;;;;21.29;35.56;101828.41;4197033;28;20066;-67
2022/05/01 07:42:33;;;;;;;5.97;3.80;;;;;;;21.34;35.47;101832.38;4197745;28;20049;-68
2022/05/01 07:44:34;;;;;;;4.53;3.30;;;;;;;21.33;35.30;101833.50;4197853;28;20266;-67
2022/05/01 07:46:35;;;;;;;5.32;3.50;;;;;;;21.35;35.30;101836.84;4197348;28;20235;-68
2022/05/01 07:48:37;;;;;;;3.85;3.25;;;;;;;21.34;35.06;101837.94;4189718;28;20102;-67
2022/05/01 07:50:38;;;;;;;4.75;3.55;;;;;;;21.29;35.38;101833.97;4181663;28;20045;-67
2022/05/01 07:52:40;;;;;;;4.97;3.50;;;;;;;21.28;35.37;101832.31;4181474;28;20393;-67
2022/05/01 07:54:41;;;;;;;4.18;3.33;;;;;;;21.28;35.49;101832.31;4180328;28;20107;-67
2022/05/01 07:56:42;;;;;;;3.53;2.75;;;;;;;21.31;35.23;101834.59;4183933;28;20037;-67
2022/05/01 07:58:46;;;;;;;4.22;3.50;;;;;;;21.31;35.18;101840.19;4181099;28;20048;-68
2022/05/01 08:00:48;;;;;;;4.93;3.50;;;;;;;21.31;35.51;101840.19;4180844;28;20032;-67
2022/05/01 08:05:09;;;;;;;5.28;3.15;;;;;;;21.29;35.19;101833.97;4181467;28;20098;-67
2022/05/01 08:07:10;;;;;;;3.38;2.78;;;;;;;21.28;35.21;101835.09;4181049;28;20095;-67
2022/05/01 08:09:15;;;;;;;4.72;3.42;;;;;;;21.28;35.41;101837.03;4181070;28;20037;-68
2022/05/01 08:11:18;;;;;;;4.00;2.73;;;;;;;21.28;35.42;101843.44;4180448;28;20106;-68
2022/05/01 08:13:22;;;;;;;6.93;3.67;;;;;;;21.31;35.50;101848.53;4186409;28;20036;-67
2022/05/01 08:15:23;;;;;;;3.90;3.10;;;;;;;21.30;35.47;101846.81;4197031;28;20132;-67
2022/05/01 08:17:25;;;;;;;5.28;3.03;;;;;;;21.33;35.07;101844.63;4191280;28;20546;-68
2022/05/01 08:21:51;;;;;;;4.85;3.08;;;;;;;21.30;35.15;101841.25;4182402;28;20087;-68
2022/05/01 08:23:52;;;;;;;4.22;3.20;;;;;;;21.27;35.18;101830.63;4193865;28;20049;-67
2022/05/01 08:25:58;;;;;;;3.35;2.83;;;;;;;21.27;35.39;101841.75;4184226;28;20029;-67
2022/05/01 08:28:00;;;;;;;3.92;2.83;;;;;;;21.25;35.05;101838.38;4180836;28;20045;-67
2022/05/01 08:30:01;;;;;;;4.40;3.25;;;;;;;21.29;35.11;101841.50;4180875;28;20106;-68
2022/05/01 08:32:06;;;;;;;3.75;3.00;;;;;;;21.28;35.54;101832.31;4194075;28;20369;-68
2022/05/01 08:34:10;;;;;;;4.15;3.00;;;;;;;21.27;35.16;101830.63;4188278;28;20546;-68
2022/05/01 08:36:11;;;;;;;4.57;3.03;;;;;;;21.28;35.56;101832.31;4182387;28;20044;-68
2022/05/01 08:38:13;;;;;;;4.25;2.83;;;;;;;21.28;35.54;101825.91;4195850;28;20097;-67
2022/05/01 08:40:14;;;;;;;4.55;3.00;;;;;;;21.26;35.61;101822.56;4199045;28;20048;-68
2022/05/01 08:42:16;;;;;;;4.18;3.28;;;;;;;21.25;35.20;101818.91;4183137;28;20102;-68
2022/05/01 08:44:31;;;;;;;5.22;3.20;;;;;;;21.24;35.18;101811.66;4186689;28;20375;-68
2022/05/01 08:46:55;;;;;;;4.13;3.20;;;;;;;21.23;35.07;101814.72;4167202;28;20550;-68
2022/05/01 08:49:04;;;;;;;4.25;3.30;;;;;;;21.26;35.41;101811.41;4170658;28;20090;-68
2022/05/01 08:51:07;;;;;;;4.60;3.22;;;;;;;21.23;35.26;101809.97;4183114;28;20020;-67
2022/05/01 08:53:13;;;;;;;6.85;3.03;;;;;;;21.25;35.35;101804.97;4185353;28;20041;-68
2022/05/01 08:55:17;;;;;;;4.35;3.20;;;;;;;21.24;35.16;101805.25;4182832;28;20040;-68
2022/05/01 08:57:21;;;;;;;4.05;2.80;;;;;;;21.24;35.18;101803.31;4177127;28;20049;-68
2022/05/01 08:59:29;;;;;;;3.72;3.00;;;;;;;21.20;35.25;101806.88;4183457;28;20439;-68
2022/05/01 09:01:34;;;;;;;3.13;2.80;;;;;;;21.23;35.35;101812.75;4183502;28;20056;-68
2022/05/01 09:03:39;;;;;;;3.67;3.00;;;;;;;21.22;35.34;101816.66;4183380;28;20033;-68
2022/05/01 09:05:41;;;;;;;3.55;2.95;;;;;;;21.23;35.26;101807.19;4166521;28;20104;-68
2022/05/01 09:07:47;;;;;;;3.70;3.05;;;;;;;21.24;35.29;101813.59;4166831;28;20083;-68
2022/05/01 09:09:51;;;;;;;4.85;3.22;;;;;;;21.23;35.19;101817.50;4169848;28;20036;-68
2022/05/01 09:14:13;;;;;;;3.45;2.80;;;;;;;21.24;35.57;101811.66;4183975;28;20139;-68
2022/05/01 09:16:18;;;;;;;3.83;2.97;;;;;;;21.22;35.43;101811.09;4182923;28;20041;-68
2022/05/01 09:18:19;;;;;;;5.97;3.10;;;;;;;21.15;35.23;101804.03;4196542;28;20097;-68
2022/05/01 09:20:21;;;;;;;3.92;3.20;;;;;;;21.22;35.34;101816.66;4192997;28;20491;-68
2022/05/01 09:22:22;;;;;;;5.63;3.38;;;;;;;21.21;35.36;101820.56;4189048;28;20045;-68
2022/05/01 09:24:28;;;;;;;3.50;3.08;;;;;;;21.21;35.31;101830.81;4182776;28;20049;-68
2022/05/01 09:26:40;;;;;;;3.63;2.95;;;;;;;21.21;35.22;101831.69;4185496;28;20079;-67
2022/05/01 09:28:55;;;;;;;4.13;2.60;;;;;;;21.19;35.20;101833.88;4181750;28;20091;-68
2022/05/01 09:30:56;;;;;;;3.60;2.95;;;;;;;21.21;35.61;101834.47;4182677;28;20045;-68
2022/05/01 09:33:01;;;;;;;3.10;2.75;;;;;;;21.23;35.34;101829.47;4187883;28;20037;-68
2022/05/01 09:35:02;;;;;;;;;;;;;;;21.17;35.26;101841.66;4190404;28;20045;-67
2022/05/01 09:37:18;;;;;;;3.72;3.00;;;;;;;21.23;35.10;101839.75;4190301;28;19932;-68
2022/05/01 09:39:25;;;;;;;4.82;3.05;;;;;;;21.25;35.16;101838.38;4189884;28;20468;-68
2022/05/01 09:41:29;;;;;;;3.42;3.13;;;;;;;21.26;35.46;101842.88;4197456;28;20048;-67
2022/05/01 09:43:42;;;;;;;2.97;2.63;;;;;;;21.24;35.41;101841.44;4196816;28;20101;-68
2022/05/01 09:45:43;;;;;;;4.20;3.13;;;;;;;21.22;35.05;101844.50;4186854;28;20041;-67
2022/05/01 09:47:45;;;;;;;3.53;3.00;;;;;;;21.21;35.41;101848.38;4182410;28;20068;-67
2022/05/01 09:49:53;;;;;;;3.08;2.78;;;;;;;21.20;35.05;101852.25;4182020;28;20075;-68
2022/05/01 09:51:56;;;;;;;4.07;2.83;;;;;;;21.13;35.26;101840.50;4183580;28;20040;-68
2022/05/01 09:54:00;;;;;;;3.28;2.80;;;;;;;21.21;35.60;101848.38;4182689;28;20037;-67
2022/05/01 09:56:01;;;;;;;4.05;2.80;;;;;;;21.19;35.29;101850.56;4193055;28;20097;-68